Capt Amer — 3FCQ3 — position and weather

sailwx.info

Track history (hours):
 
Tides and Currents Weather Stations Pressure Air Temp Water Temp Dewpoint Dewpoint Depression Visibility Wind Speed Wind Dir Waves Ship Positions

Capt Amer

Last reported at 2016-Sep-17 12:33 UTC. Time now 2016-Sep-26 17:26 UTC.
Position N 37°03' E 012°48'.
Warning: this ship's position is 9 days out of date.

Length 113 m; draft 5.2 m.

Type: Cargo ship. MMSI: 373175000.

Date/timePositionNaut miles runAvg speedWind from/ knotsBaromVisibWave heightAir tempDewpointWater temp
2016-Sep-17 12:33N 37°03' E 012°48'21 9.6
2016-Sep-17 10:22N 36°57' E 013°13'10 9.6
2016-Sep-17 09:22N 36°55' E 013°25'8 9.6
2016-Sep-17 08:33N 36°53' E 013°35'10 9.6
2016-Sep-17 07:34N 36°50' E 013°46'20 9.8
2016-Sep-17 05:33N 36°45' E 014°09'1010.1
2016-Sep-17 04:33N 36°42' E 014°21'44 9.9
2016-Sep-17 00:03N 36°35' E 015°16'65 9.9
2016-Sep-16 17:33N 36°55' E 016°33'  
2016-Sep-08 08:33N 38°14' E 021°21'  
Track history (hours):
 
Tides and Currents Weather Stations Pressure Air Temp Water Temp Dewpoint Dewpoint Depression Visibility Wind Speed Wind Dir Waves Ship Positions

Capt Amer

Last reported at 2016-Sep-17 12:33 UTC. Time now 2016-Sep-26 17:26 UTC.
Position N 37°03' E 012°48'.
Warning: this ship's position is 9 days out of date.

Length 113 m; draft 5.2 m.

Type: Cargo ship. MMSI: 373175000.

Date/timePositionNaut miles runAvg speedWind from/ knotsBaromVisibWave heightAir tempDewpointWater temp
2016-Sep-17 12:33N 37°03' E 012°48'21 9.6
2016-Sep-17 10:22N 36°57' E 013°13'10 9.6
2016-Sep-17 09:22N 36°55' E 013°25'8 9.6
2016-Sep-17 08:33N 36°53' E 013°35'10 9.6
2016-Sep-17 07:34N 36°50' E 013°46'20 9.8
2016-Sep-17 05:33N 36°45' E 014°09'1010.1
2016-Sep-17 04:33N 36°42' E 014°21'44 9.9
2016-Sep-17 00:03N 36°35' E 015°16'65 9.9
2016-Sep-16 17:33N 36°55' E 016°33'  
2016-Sep-08 08:33N 38°14' E 021°21'  

Dump ship's entire track history